• Join FlightAware (Why Join?)
  • Login
  • US Flag 
06:59PM EDT


 

Airport Tracker/Info


-or-


 

Live Flight TrackerFlight Track Log ✈ UCA3597 ✈ 06-Oct-2013 ✈ KBGM - KIAD

Flight Track Log - Related Links

Times and Time Zones

All times are in EDT time to prevent confusion due to time zone crossing. See the UCA3597 flight status page for this flight to view local times or setup timezone preferences in your user account.

Time Position Orientation Groundspeed Altitude Reporting Facility
EDT Latitude Longitude Course Direction KTS MPH feet Rate Location/Type
07:22PM 42.1800 -75.9731 200° South 115 132 2,800  Level New York Center
07:23PM 42.1503 -75.9875 200° South 139 160 3,700 1,020 Climbing New York Center
07:24PM 42.1175 -76.0183 215° Southwest 152 175 4,900 1,200 Climbing New York Center
07:25PM 42.0806 -76.0547 216° Southwest 158 182 6,200 1,260 Climbing New York Center
07:26PM 42.0414 -76.0933 216° Southwest 164 189 7,500 900 Climbing New York Center
07:27PM 42.0042 -76.1322 218° Southwest 176 203 8,000 240 Climbing New York Center
07:28PM 41.9497 -76.1864 217° Southwest 216 249 8,000 660 Level New York Center
07:29PM 41.9019 -76.2300 214° Southwest 222 255 9,400 1,260 Climbing New York Center
07:30PM 41.8606 -76.2711 216° Southwest 215 247 10,600 780 Climbing New York Center
07:31PM 41.8214 -76.3094 216° Southwest 199 229 11,000 240 Climbing New York Center
07:32PM 41.7689 -76.3581 215° Southwest 216 249 11,100 420 Climbing New York Center
07:33PM 41.7142 -76.4144 218° Southwest 229 264 11,900 900 Climbing New York Center
07:34PM 41.6683 -76.4578 215° Southwest 223 257 12,900 1,020 Climbing New York Center
07:35PM 41.6228 -76.5011 215° Southwest 217 250 14,000 960 Climbing New York Center
07:36PM 41.5833 -76.5394 216° Southwest 207 238 14,900 960 Climbing New York Center
07:37PM 41.5372 -76.5853 217° Southwest 207 238 16,000 540 Climbing New York Center
07:38PM 41.4892 -76.6311 216° Southwest 207 238 16,000  Level New York Center
07:39PM 41.4392 -76.6764 214° Southwest 217 250 16,000  Level New York Center
07:40PM 41.3931 -76.7250 218° Southwest 230 265 16,000  Level New York Center
07:41PM 41.3403 -76.7756 216° Southwest 235 270 16,000  Level New York Center
07:42PM 41.2728 -76.7917 190° South 235 270 16,000  Level New York Center
07:43PM 41.2097 -76.8056 189° South 235 270 16,000  Level New York Center
07:44PM 41.1444 -76.8161 187° South 240 276 16,000  Level New York Center
07:45PM 41.0792 -76.8297 189° South 240 276 16,000  Level New York Center
07:46PM 41.0119 -76.8428 188° South 240 276 16,000  Level New York Center
07:47PM 40.9406 -76.8558 188° South 240 276 16,000  Level New York Center
07:48PM 40.8772 -76.8692 189° South 235 270 16,000  Level New York Center
07:49PM 40.8119 -76.8828 189° South 240 276 16,000  Level New York Center
07:50PM 40.7464 -76.8989 191° South 240 276 16,000  Level New York Center
07:51PM 40.6808 -76.9203 194° South 240 276 16,000  Level New York Center
07:52PM 40.6194 -76.9394 193° South 240 276 16,000  Level New York Center
07:53PM 40.5558 -76.9583 193° South 240 276 16,000  Level New York Center
07:54PM 40.4900 -76.9797 194° South 240 276 16,000 -480 Level New York Center
07:56PM 40.3500 -77.0167 191° South 251 289 14,600 -780 Descending Potomac TRACON
07:57PM 40.2667 -77.0500 197° South 259 298 13,500 -1,020 Descending Potomac TRACON
07:58PM 40.2000 -77.0667 191° South 255 293 12,500 -1,020 Descending Potomac TRACON
07:59PM 40.1333 -77.1000 201° Southwest 256 295 11,500 -1,020 Descending Potomac TRACON
08:00PM 40.0667 -77.1333 201° Southwest 257 296 10,500 -1,020 Descending Potomac TRACON
08:01PM 39.9833 -77.1667 197° South 246 283 9,400 -780 Descending Potomac TRACON
08:02PM 39.9333 -77.1833 194° South 236 272 9,000 -240 Descending Potomac TRACON
08:03PM 39.8667 -77.2167 201° Southwest 228 262 9,000 -360 Level Potomac TRACON
08:04PM 39.8167 -77.2500 207° Southwest 234 269 8,300 -540 Descending Potomac TRACON
08:05PM 39.7500 -77.2833 201° Southwest 229 264 8,000 -180 Descending Potomac TRACON
08:06PM 39.7000 -77.3000 194° South 221 254 8,000 -540 Level Potomac TRACON
08:07PM 39.6333 -77.3333 201° Southwest 227 261 7,000 -960 Descending Potomac TRACON
08:08PM 39.5833 -77.3667 207° Southwest 234 269 6,100 -660 Descending Potomac TRACON
08:09PM 39.5167 -77.4167 210° Southwest 229 264 5,700 -600 Descending Potomac TRACON
08:10PM 39.4667 -77.4333 194° South 229 264 4,900 -900 Descending Potomac TRACON
08:11PM 39.3833 -77.4333 180° South 225 259 4,000 -600 Descending Potomac TRACON
08:12PM 39.3333 -77.4333 180° South 221 254 3,800 -540 Descending Potomac TRACON
08:13PM 39.2833 -77.4333 180° South 225 259 3,000 -420 Descending Potomac TRACON
08:14PM 39.2167 -77.4333 180° South 212 244 3,000  Level Potomac TRACON
08:15PM 39.1667 -77.4333 180° South 211 243 3,000 -120 Level Potomac TRACON
08:16PM 39.0833 -77.4333 180° South 214 246 2,800 -540 Descending Potomac TRACON
08:17PM 39.0333 -77.4333 180° South 166 191 1,900 -900 Descending Potomac TRACON
08:18PM 39.0000 -77.4333 180° South 140 161 1,200 -660 Descending Potomac TRACON
08:19PM 38.9667 -77.4333 180° South 101 116 600 -600 Descending Potomac TRACON